Wolf Point, Montana
Current Conditions -  °F | °C
As of 11:53 AM on Sunday 21 Dec 2014 (Local Time) from KOLF Reporting Station
Overcast Overcast  
Wind Chill: 26°   Ceiling: 9500
Heat Index: 31°   Visibility: 10mi
Dew Point: 26°   Wind: 5mph
Humidity: 82%   Direction: 100°E
Pressure: 29.33"   Gusts: NA
Location:  48.09°N, 105.64°W
Report Text: KOLF 211853Z AUTO 10004KT 10SM FEW070 OVC095 M01/M03 A2933 RMK AO2 SLP958 T10061033
Loading
Personal Weather Stations






























Interactive Weather Map New forecast layout! Learn more

10-Day Weather Forecast

Advertisements
Track Severe Weather on mobile